sensor_id;sensor_type;location;lat;lon;timestamp;P1;durP1;ratioP1;P2;durP2;ratioP2
37891;SDS011;45797;47.466;9.486;2022-08-19T00:02:52;4.10;;;2.38;;
37891;SDS011;45797;47.466;9.486;2022-08-19T00:07:54;5.25;;;2.60;;
37891;SDS011;45797;47.466;9.486;2022-08-19T00:12:54;5.13;;;2.80;;
37891;SDS011;45797;47.466;9.486;2022-08-19T00:17:54;4.82;;;2.72;;
37891;SDS011;45797;47.466;9.486;2022-08-19T00:27:58;5.07;;;2.60;;
37891;SDS011;45797;47.466;9.486;2022-08-19T00:33:05;4.72;;;2.60;;
37891;SDS011;45797;47.466;9.486;2022-08-19T00:38:12;5.22;;;2.60;;
37891;SDS011;45797;47.466;9.486;2022-08-19T00:48:22;4.88;;;2.63;;
37891;SDS011;45797;47.466;9.486;2022-08-19T00:53:23;5.63;;;2.75;;
37891;SDS011;45797;47.466;9.486;2022-08-19T00:58:29;6.15;;;3.15;;
37891;SDS011;45797;47.466;9.486;2022-08-19T01:03:31;6.00;;;2.97;;
37891;SDS011;45797;47.466;9.486;2022-08-19T01:08:31;5.60;;;2.95;;
37891;SDS011;45797;47.466;9.486;2022-08-19T01:13:33;4.95;;;2.83;;
37891;SDS011;45797;47.466;9.486;2022-08-19T01:23:40;5.57;;;2.95;;
37891;SDS011;45797;47.466;9.486;2022-08-19T01:28:46;5.93;;;3.33;;
37891;SDS011;45797;47.466;9.486;2022-08-19T01:33:56;6.38;;;3.40;;
37891;SDS011;45797;47.466;9.486;2022-08-19T01:38:58;6.95;;;3.53;;
37891;SDS011;45797;47.466;9.486;2022-08-19T01:44:09;5.43;;;3.13;;
37891;SDS011;45797;47.466;9.486;2022-08-19T01:49:12;6.85;;;3.55;;
37891;SDS011;45797;47.466;9.486;2022-08-19T01:54:13;6.80;;;3.45;;
37891;SDS011;45797;47.466;9.486;2022-08-19T01:59:17;6.85;;;3.65;;
37891;SDS011;45797;47.466;9.486;2022-08-19T02:04:27;5.85;;;3.55;;
37891;SDS011;45797;47.466;9.486;2022-08-19T02:09:27;8.05;;;3.97;;
37891;SDS011;45797;47.466;9.486;2022-08-19T02:19:58;9.90;;;4.20;;
37891;SDS011;45797;47.466;9.486;2022-08-19T02:25:02;8.02;;;4.03;;
37891;SDS011;45797;47.466;9.486;2022-08-19T02:30:06;8.02;;;3.92;;
37891;SDS011;45797;47.466;9.486;2022-08-19T02:40:24;7.20;;;3.70;;
37891;SDS011;45797;47.466;9.486;2022-08-19T02:45:23;8.68;;;4.10;;
37891;SDS011;45797;47.466;9.486;2022-08-19T02:50:23;6.90;;;4.03;;
37891;SDS011;45797;47.466;9.486;2022-08-19T02:55:24;8.13;;;4.00;;
37891;SDS011;45797;47.466;9.486;2022-08-19T03:00:24;6.63;;;3.80;;
37891;SDS011;45797;47.466;9.486;2022-08-19T03:05:26;6.68;;;3.80;;
37891;SDS011;45797;47.466;9.486;2022-08-19T03:10:28;6.28;;;3.38;;
37891;SDS011;45797;47.466;9.486;2022-08-19T03:15:30;6.90;;;3.50;;
37891;SDS011;45797;47.466;9.486;2022-08-19T03:20:31;7.50;;;3.80;;
37891;SDS011;45797;47.466;9.486;2022-08-19T03:30:36;7.43;;;4.28;;
37891;SDS011;45797;47.466;9.486;2022-08-19T03:35:42;7.00;;;3.67;;
37891;SDS011;45797;47.466;9.486;2022-08-19T03:40:41;5.95;;;3.50;;
37891;SDS011;45797;47.466;9.486;2022-08-19T03:45:59;7.35;;;3.80;;
37891;SDS011;45797;47.466;9.486;2022-08-19T03:56:05;6.63;;;3.63;;
37891;SDS011;45797;47.466;9.486;2022-08-19T04:01:14;8.00;;;4.18;;
37891;SDS011;45797;47.466;9.486;2022-08-19T04:11:31;7.43;;;4.07;;
37891;SDS011;45797;47.466;9.486;2022-08-19T04:16:48;8.93;;;4.55;;
37891;SDS011;45797;47.466;9.486;2022-08-19T04:21:50;9.85;;;5.15;;
37891;SDS011;45797;47.466;9.486;2022-08-19T04:31:56;9.50;;;5.18;;
37891;SDS011;45797;47.466;9.486;2022-08-19T04:36:58;8.75;;;5.05;;
37891;SDS011;45797;47.466;9.486;2022-08-19T04:42:00;9.30;;;5.05;;
37891;SDS011;45797;47.466;9.486;2022-08-19T04:47:18;10.05;;;4.90;;
37891;SDS011;45797;47.466;9.486;2022-08-19T04:52:19;9.80;;;4.90;;
37891;SDS011;45797;47.466;9.486;2022-08-19T05:02:27;10.57;;;5.40;;
37891;SDS011;45797;47.466;9.486;2022-08-19T05:07:41;10.68;;;5.55;;
37891;SDS011;45797;47.466;9.486;2022-08-19T05:12:46;12.00;;;5.70;;
37891;SDS011;45797;47.466;9.486;2022-08-19T05:17:48;10.77;;;5.50;;
37891;SDS011;45797;47.466;9.486;2022-08-19T05:23:20;11.30;;;5.30;;
37891;SDS011;45797;47.466;9.486;2022-08-19T05:28:20;11.88;;;5.82;;
37891;SDS011;45797;47.466;9.486;2022-08-19T05:43:43;12.15;;;5.72;;
37891;SDS011;45797;47.466;9.486;2022-08-19T05:48:45;12.88;;;5.65;;
37891;SDS011;45797;47.466;9.486;2022-08-19T05:53:45;12.30;;;5.47;;
37891;SDS011;45797;47.466;9.486;2022-08-19T05:58:47;12.10;;;5.88;;
37891;SDS011;45797;47.466;9.486;2022-08-19T06:08:58;11.95;;;5.85;;
37891;SDS011;45797;47.466;9.486;2022-08-19T06:14:00;12.38;;;6.10;;
37891;SDS011;45797;47.466;9.486;2022-08-19T06:19:15;17.65;;;6.65;;
37891;SDS011;45797;47.466;9.486;2022-08-19T06:24:19;12.68;;;6.07;;
37891;SDS011;45797;47.466;9.486;2022-08-19T06:29:26;15.23;;;6.70;;
37891;SDS011;45797;47.466;9.486;2022-08-19T06:34:31;15.82;;;7.07;;
37891;SDS011;45797;47.466;9.486;2022-08-19T06:39:39;14.05;;;6.50;;
37891;SDS011;45797;47.466;9.486;2022-08-19T06:49:47;17.17;;;7.20;;
37891;SDS011;45797;47.466;9.486;2022-08-19T06:54:52;15.02;;;6.93;;
37891;SDS011;45797;47.466;9.486;2022-08-19T06:59:51;17.10;;;6.88;;
37891;SDS011;45797;47.466;9.486;2022-08-19T07:04:52;16.33;;;7.47;;
37891;SDS011;45797;47.466;9.486;2022-08-19T07:09:54;16.15;;;7.25;;
37891;SDS011;45797;47.466;9.486;2022-08-19T07:19:59;16.02;;;7.70;;
37891;SDS011;45797;47.466;9.486;2022-08-19T07:25:06;15.70;;;6.93;;
37891;SDS011;45797;47.466;9.486;2022-08-19T07:30:13;14.52;;;7.32;;
37891;SDS011;45797;47.466;9.486;2022-08-19T07:35:13;15.68;;;6.85;;
37891;SDS011;45797;47.466;9.486;2022-08-19T07:40:20;12.63;;;6.28;;
37891;SDS011;45797;47.466;9.486;2022-08-19T07:45:21;16.08;;;6.80;;
37891;SDS011;45797;47.466;9.486;2022-08-19T07:50:21;17.67;;;6.75;;
37891;SDS011;45797;47.466;9.486;2022-08-19T07:55:23;18.08;;;7.70;;
37891;SDS011;45797;47.466;9.486;2022-08-19T08:00:25;15.52;;;6.90;;
37891;SDS011;45797;47.466;9.486;2022-08-19T08:05:25;18.45;;;7.50;;
37891;SDS011;45797;47.466;9.486;2022-08-19T08:10:43;18.20;;;7.82;;
37891;SDS011;45797;47.466;9.486;2022-08-19T08:15:43;17.20;;;7.00;;
37891;SDS011;45797;47.466;9.486;2022-08-19T08:20:48;16.15;;;7.40;;
37891;SDS011;45797;47.466;9.486;2022-08-19T08:25:48;15.00;;;7.88;;
37891;SDS011;45797;47.466;9.486;2022-08-19T08:30:49;18.23;;;6.95;;
37891;SDS011;45797;47.466;9.486;2022-08-19T08:35:56;15.45;;;7.45;;
37891;SDS011;45797;47.466;9.486;2022-08-19T08:41:05;17.63;;;8.20;;
37891;SDS011;45797;47.466;9.486;2022-08-19T08:46:29;17.30;;;7.25;;
37891;SDS011;45797;47.466;9.486;2022-08-19T08:51:39;16.13;;;7.65;;
37891;SDS011;45797;47.466;9.486;2022-08-19T08:56:49;13.57;;;6.80;;
37891;SDS011;45797;47.466;9.486;2022-08-19T09:01:51;15.35;;;7.25;;
37891;SDS011;45797;47.466;9.486;2022-08-19T09:17:59;12.80;;;6.13;;
37891;SDS011;45797;47.466;9.486;2022-08-19T09:23:00;16.23;;;7.13;;
37891;SDS011;45797;47.466;9.486;2022-08-19T09:28:01;15.65;;;7.05;;
37891;SDS011;45797;47.466;9.486;2022-08-19T09:33:08;15.77;;;7.43;;
37891;SDS011;45797;47.466;9.486;2022-08-19T09:38:08;14.27;;;6.47;;
37891;SDS011;45797;47.466;9.486;2022-08-19T09:43:13;17.10;;;7.22;;
37891;SDS011;45797;47.466;9.486;2022-08-19T09:48:13;14.75;;;6.93;;
37891;SDS011;45797;47.466;9.486;2022-08-19T09:53:14;14.50;;;6.60;;
37891;SDS011;45797;47.466;9.486;2022-08-19T09:58:26;13.98;;;6.40;;
37891;SDS011;45797;47.466;9.486;2022-08-19T10:03:36;15.90;;;6.50;;
37891;SDS011;45797;47.466;9.486;2022-08-19T10:13:46;15.68;;;6.60;;
37891;SDS011;45797;47.466;9.486;2022-08-19T10:18:48;16.30;;;6.88;;
37891;SDS011;45797;47.466;9.486;2022-08-19T10:23:51;15.20;;;7.07;;
37891;SDS011;45797;47.466;9.486;2022-08-19T10:34:04;14.35;;;6.35;;
37891;SDS011;45797;47.466;9.486;2022-08-19T10:39:06;14.10;;;6.95;;
37891;SDS011;45797;47.466;9.486;2022-08-19T10:44:13;14.98;;;6.47;;
37891;SDS011;45797;47.466;9.486;2022-08-19T10:49:16;14.52;;;6.40;;
37891;SDS011;45797;47.466;9.486;2022-08-19T10:54:18;15.10;;;6.40;;
37891;SDS011;45797;47.466;9.486;2022-08-19T10:59:26;15.00;;;6.68;;
37891;SDS011;45797;47.466;9.486;2022-08-19T11:04:28;15.70;;;6.43;;
37891;SDS011;45797;47.466;9.486;2022-08-19T11:09:28;14.52;;;6.30;;
37891;SDS011;45797;47.466;9.486;2022-08-19T11:14:28;11.82;;;5.72;;
37891;SDS011;45797;47.466;9.486;2022-08-19T11:19:31;12.75;;;5.97;;
37891;SDS011;45797;47.466;9.486;2022-08-19T11:24:32;14.00;;;5.63;;
37891;SDS011;45797;47.466;9.486;2022-08-19T11:29:38;12.57;;;5.72;;
37891;SDS011;45797;47.466;9.486;2022-08-19T11:39:42;10.52;;;5.00;;
37891;SDS011;45797;47.466;9.486;2022-08-19T11:44:42;12.18;;;4.85;;
37891;SDS011;45797;47.466;9.486;2022-08-19T11:49:42;8.00;;;3.85;;
37891;SDS011;45797;47.466;9.486;2022-08-19T11:54:43;9.02;;;4.25;;
37891;SDS011;45797;47.466;9.486;2022-08-19T11:59:51;7.43;;;3.55;;
37891;SDS011;45797;47.466;9.486;2022-08-19T12:04:55;5.40;;;2.78;;
37891;SDS011;45797;47.466;9.486;2022-08-19T12:09:57;6.25;;;3.03;;
37891;SDS011;45797;47.466;9.486;2022-08-19T12:14:59;7.32;;;3.10;;
37891;SDS011;45797;47.466;9.486;2022-08-19T12:19:59;5.15;;;2.55;;
37891;SDS011;45797;47.466;9.486;2022-08-19T12:30:06;6.68;;;2.78;;
37891;SDS011;45797;47.466;9.486;2022-08-19T12:35:07;5.72;;;2.55;;
37891;SDS011;45797;47.466;9.486;2022-08-19T12:40:09;6.22;;;2.95;;
37891;SDS011;45797;47.466;9.486;2022-08-19T12:45:12;6.72;;;3.13;;
37891;SDS011;45797;47.466;9.486;2022-08-19T12:50:13;6.60;;;3.17;;
37891;SDS011;45797;47.466;9.486;2022-08-19T12:55:13;6.63;;;3.28;;
37891;SDS011;45797;47.466;9.486;2022-08-19T13:00:17;9.75;;;3.30;;
37891;SDS011;45797;47.466;9.486;2022-08-19T13:05:23;6.90;;;3.33;;
37891;SDS011;45797;47.466;9.486;2022-08-19T13:10:27;10.32;;;4.93;;
37891;SDS011;45797;47.466;9.486;2022-08-19T13:15:33;12.20;;;5.75;;
37891;SDS011;45797;47.466;9.486;2022-08-19T13:20:36;12.60;;;6.63;;
37891;SDS011;45797;47.466;9.486;2022-08-19T13:25:44;16.40;;;6.93;;
37891;SDS011;45797;47.466;9.486;2022-08-19T13:30:46;15.30;;;7.63;;
37891;SDS011;45797;47.466;9.486;2022-08-19T13:36:06;13.95;;;7.18;;
37891;SDS011;45797;47.466;9.486;2022-08-19T13:41:06;17.08;;;7.30;;
37891;SDS011;45797;47.466;9.486;2022-08-19T13:46:12;15.57;;;7.00;;
37891;SDS011;45797;47.466;9.486;2022-08-19T13:51:15;14.68;;;7.10;;
37891;SDS011;45797;47.466;9.486;2022-08-19T13:56:20;15.32;;;7.45;;
37891;SDS011;45797;47.466;9.486;2022-08-19T14:01:23;18.90;;;7.75;;
37891;SDS011;45797;47.466;9.486;2022-08-19T14:06:29;14.20;;;7.40;;
37891;SDS011;45797;47.466;9.486;2022-08-19T14:11:29;16.33;;;7.78;;
37891;SDS011;45797;47.466;9.486;2022-08-19T14:16:30;15.05;;;7.35;;
37891;SDS011;45797;47.466;9.486;2022-08-19T14:21:30;16.05;;;7.88;;
37891;SDS011;45797;47.466;9.486;2022-08-19T14:26:31;14.13;;;7.50;;
37891;SDS011;45797;47.466;9.486;2022-08-19T14:31:31;13.48;;;6.68;;
37891;SDS011;45797;47.466;9.486;2022-08-19T14:36:31;14.70;;;7.28;;
37891;SDS011;45797;47.466;9.486;2022-08-19T14:41:39;13.80;;;6.88;;
37891;SDS011;45797;47.466;9.486;2022-08-19T14:46:48;13.95;;;7.10;;
37891;SDS011;45797;47.466;9.486;2022-08-19T14:51:53;15.90;;;6.93;;
37891;SDS011;45797;47.466;9.486;2022-08-19T14:56:55;16.42;;;7.60;;
37891;SDS011;45797;47.466;9.486;2022-08-19T15:01:56;12.70;;;6.72;;
37891;SDS011;45797;47.466;9.486;2022-08-19T15:07:03;13.32;;;6.95;;
37891;SDS011;45797;47.466;9.486;2022-08-19T15:17:14;15.98;;;7.93;;
37891;SDS011;45797;47.466;9.486;2022-08-19T15:22:14;14.85;;;7.85;;
37891;SDS011;45797;47.466;9.486;2022-08-19T15:27:16;15.90;;;7.75;;
37891;SDS011;45797;47.466;9.486;2022-08-19T15:32:16;14.93;;;7.78;;
37891;SDS011;45797;47.466;9.486;2022-08-19T15:37:22;15.55;;;7.82;;
37891;SDS011;45797;47.466;9.486;2022-08-19T15:42:23;15.50;;;8.57;;
37891;SDS011;45797;47.466;9.486;2022-08-19T15:47:32;16.40;;;8.70;;
37891;SDS011;45797;47.466;9.486;2022-08-19T15:52:34;17.50;;;8.38;;
37891;SDS011;45797;47.466;9.486;2022-08-19T15:57:39;18.33;;;8.35;;
37891;SDS011;45797;47.466;9.486;2022-08-19T16:02:57;16.73;;;8.02;;
37891;SDS011;45797;47.466;9.486;2022-08-19T16:08:16;18.33;;;8.85;;
37891;SDS011;45797;47.466;9.486;2022-08-19T16:13:15;17.55;;;8.93;;
37891;SDS011;45797;47.466;9.486;2022-08-19T16:18:16;17.15;;;8.75;;
37891;SDS011;45797;47.466;9.486;2022-08-19T16:23:16;18.02;;;9.20;;
37891;SDS011;45797;47.466;9.486;2022-08-19T16:28:16;18.65;;;9.00;;
37891;SDS011;45797;47.466;9.486;2022-08-19T16:33:19;19.27;;;8.43;;
37891;SDS011;45797;47.466;9.486;2022-08-19T16:38:20;14.88;;;8.20;;
37891;SDS011;45797;47.466;9.486;2022-08-19T16:43:20;15.70;;;8.10;;
37891;SDS011;45797;47.466;9.486;2022-08-19T16:48:29;15.32;;;7.82;;
37891;SDS011;45797;47.466;9.486;2022-08-19T16:53:30;15.82;;;7.95;;
37891;SDS011;45797;47.466;9.486;2022-08-19T16:58:36;14.40;;;7.15;;
37891;SDS011;45797;47.466;9.486;2022-08-19T17:03:46;14.65;;;7.25;;
37891;SDS011;45797;47.466;9.486;2022-08-19T17:08:51;16.67;;;7.82;;
37891;SDS011;45797;47.466;9.486;2022-08-19T17:13:59;13.90;;;6.95;;
37891;SDS011;45797;47.466;9.486;2022-08-19T17:19:04;14.18;;;7.97;;
37891;SDS011;45797;47.466;9.486;2022-08-19T17:24:06;12.10;;;7.40;;
37891;SDS011;45797;47.466;9.486;2022-08-19T17:29:07;13.40;;;7.60;;
37891;SDS011;45797;47.466;9.486;2022-08-19T17:34:15;13.55;;;7.95;;
37891;SDS011;45797;47.466;9.486;2022-08-19T17:39:17;13.90;;;7.22;;
37891;SDS011;45797;47.466;9.486;2022-08-19T17:44:18;14.48;;;7.15;;
37891;SDS011;45797;47.466;9.486;2022-08-19T17:49:26;13.93;;;7.20;;
37891;SDS011;45797;47.466;9.486;2022-08-19T17:54:34;13.48;;;6.95;;
37891;SDS011;45797;47.466;9.486;2022-08-19T17:59:42;12.98;;;7.15;;
37891;SDS011;45797;47.466;9.486;2022-08-19T18:04:43;11.88;;;6.57;;
37891;SDS011;45797;47.466;9.486;2022-08-19T18:09:43;13.93;;;7.15;;
37891;SDS011;45797;47.466;9.486;2022-08-19T18:14:44;15.30;;;7.20;;
37891;SDS011;45797;47.466;9.486;2022-08-19T18:19:45;12.30;;;7.30;;
37891;SDS011;45797;47.466;9.486;2022-08-19T18:24:45;14.82;;;6.95;;
37891;SDS011;45797;47.466;9.486;2022-08-19T18:29:45;12.13;;;6.55;;
37891;SDS011;45797;47.466;9.486;2022-08-19T18:34:49;17.15;;;7.22;;
37891;SDS011;45797;47.466;9.486;2022-08-19T18:39:52;13.18;;;6.70;;
37891;SDS011;45797;47.466;9.486;2022-08-19T18:45:12;12.90;;;7.05;;
37891;SDS011;45797;47.466;9.486;2022-08-19T18:50:32;12.55;;;6.95;;
37891;SDS011;45797;47.466;9.486;2022-08-19T18:55:32;12.77;;;6.60;;
37891;SDS011;45797;47.466;9.486;2022-08-19T19:00:32;13.27;;;6.55;;
37891;SDS011;45797;47.466;9.486;2022-08-19T19:05:35;14.45;;;6.78;;
37891;SDS011;45797;47.466;9.486;2022-08-19T19:10:36;14.32;;;6.70;;
37891;SDS011;45797;47.466;9.486;2022-08-19T19:15:35;11.98;;;6.63;;
37891;SDS011;45797;47.466;9.486;2022-08-19T19:25:41;13.38;;;6.15;;
37891;SDS011;45797;47.466;9.486;2022-08-19T19:30:42;11.60;;;6.13;;
37891;SDS011;45797;47.466;9.486;2022-08-19T19:35:42;11.48;;;5.97;;
37891;SDS011;45797;47.466;9.486;2022-08-19T19:45:46;12.18;;;6.15;;
37891;SDS011;45797;47.466;9.486;2022-08-19T19:50:48;12.95;;;6.20;;
37891;SDS011;45797;47.466;9.486;2022-08-19T19:55:50;11.30;;;5.85;;
37891;SDS011;45797;47.466;9.486;2022-08-19T20:00:53;12.52;;;6.72;;
37891;SDS011;45797;47.466;9.486;2022-08-19T20:05:53;11.10;;;6.47;;
37891;SDS011;45797;47.466;9.486;2022-08-19T20:10:59;13.70;;;6.47;;
37891;SDS011;45797;47.466;9.486;2022-08-19T20:21:28;11.88;;;6.72;;
37891;SDS011;45797;47.466;9.486;2022-08-19T20:26:42;10.65;;;5.50;;
37891;SDS011;45797;47.466;9.486;2022-08-19T20:31:45;11.48;;;6.75;;
37891;SDS011;45797;47.466;9.486;2022-08-19T20:36:47;10.75;;;5.82;;
37891;SDS011;45797;47.466;9.486;2022-08-19T20:41:49;10.55;;;6.20;;
37891;SDS011;45797;47.466;9.486;2022-08-19T20:46:49;11.18;;;5.88;;
37891;SDS011;45797;47.466;9.486;2022-08-19T20:51:49;11.00;;;6.35;;
37891;SDS011;45797;47.466;9.486;2022-08-19T20:56:48;11.57;;;6.45;;
37891;SDS011;45797;47.466;9.486;2022-08-19T21:06:59;13.48;;;6.32;;
37891;SDS011;45797;47.466;9.486;2022-08-19T21:12:04;10.65;;;5.47;;
37891;SDS011;45797;47.466;9.486;2022-08-19T21:17:05;11.82;;;6.30;;
37891;SDS011;45797;47.466;9.486;2022-08-19T21:22:06;12.18;;;5.97;;
37891;SDS011;45797;47.466;9.486;2022-08-19T21:27:10;11.93;;;6.25;;
37891;SDS011;45797;47.466;9.486;2022-08-19T21:32:17;10.63;;;6.03;;
37891;SDS011;45797;47.466;9.486;2022-08-19T21:37:17;13.50;;;6.22;;
37891;SDS011;45797;47.466;9.486;2022-08-19T21:42:18;11.52;;;6.07;;
37891;SDS011;45797;47.466;9.486;2022-08-19T21:47:23;9.75;;;5.55;;
37891;SDS011;45797;47.466;9.486;2022-08-19T21:52:23;9.95;;;5.35;;
37891;SDS011;45797;47.466;9.486;2022-08-19T21:57:35;9.43;;;5.53;;
37891;SDS011;45797;47.466;9.486;2022-08-19T22:02:37;10.25;;;5.70;;
37891;SDS011;45797;47.466;9.486;2022-08-19T22:07:39;10.60;;;5.35;;
37891;SDS011;45797;47.466;9.486;2022-08-19T22:12:43;10.93;;;5.28;;
37891;SDS011;45797;47.466;9.486;2022-08-19T22:17:43;9.02;;;4.80;;
37891;SDS011;45797;47.466;9.486;2022-08-19T22:22:56;7.88;;;4.40;;
37891;SDS011;45797;47.466;9.486;2022-08-19T22:28:00;7.60;;;4.53;;
37891;SDS011;45797;47.466;9.486;2022-08-19T22:33:04;8.55;;;4.70;;
37891;SDS011;45797;47.466;9.486;2022-08-19T22:38:07;8.50;;;4.78;;
37891;SDS011;45797;47.466;9.486;2022-08-19T22:43:13;7.80;;;4.40;;
37891;SDS011;45797;47.466;9.486;2022-08-19T22:48:21;8.13;;;4.50;;
37891;SDS011;45797;47.466;9.486;2022-08-19T22:53:23;9.68;;;4.38;;
37891;SDS011;45797;47.466;9.486;2022-08-19T22:58:26;7.53;;;4.10;;
37891;SDS011;45797;47.466;9.486;2022-08-19T23:03:27;9.52;;;4.97;;
37891;SDS011;45797;47.466;9.486;2022-08-19T23:08:27;7.97;;;4.80;;
37891;SDS011;45797;47.466;9.486;2022-08-19T23:13:28;10.63;;;5.05;;
37891;SDS011;45797;47.466;9.486;2022-08-19T23:18:31;8.05;;;4.78;;
37891;SDS011;45797;47.466;9.486;2022-08-19T23:23:31;10.07;;;4.78;;
37891;SDS011;45797;47.466;9.486;2022-08-19T23:33:54;8.55;;;4.68;;
37891;SDS011;45797;47.466;9.486;2022-08-19T23:38:54;10.82;;;5.05;;
37891;SDS011;45797;47.466;9.486;2022-08-19T23:44:01;10.05;;;4.80;;
37891;SDS011;45797;47.466;9.486;2022-08-19T23:54:12;10.75;;;4.93;;
37891;SDS011;45797;47.466;9.486;2022-08-19T23:59:20;7.70;;;4.18;;
